sensor_id;sensor_type;location;lat;lon;timestamp;P1;durP1;ratioP1;P2;durP2;ratioP2
17965;SDS011;9108;53.204;10.424;2022-07-10T00:00:33;3.10;;;0.43;;
17965;SDS011;9108;53.204;10.424;2022-07-10T00:03:02;3.47;;;0.80;;
17965;SDS011;9108;53.204;10.424;2022-07-10T00:05:29;4.53;;;0.90;;
17965;SDS011;9108;53.204;10.424;2022-07-10T00:07:57;8.50;;;0.80;;
17965;SDS011;9108;53.204;10.424;2022-07-10T00:10:24;4.57;;;0.60;;
17965;SDS011;9108;53.204;10.424;2022-07-10T00:12:51;1.93;;;0.60;;
17965;SDS011;9108;53.204;10.424;2022-07-10T00:15:18;3.67;;;0.53;;
17965;SDS011;9108;53.204;10.424;2022-07-10T00:17:46;3.37;;;0.53;;
17965;SDS011;9108;53.204;10.424;2022-07-10T00:20:16;1.57;;;0.40;;
17965;SDS011;9108;53.204;10.424;2022-07-10T00:22:43;0.80;;;0.40;;
17965;SDS011;9108;53.204;10.424;2022-07-10T00:25:10;4.23;;;0.50;;
17965;SDS011;9108;53.204;10.424;2022-07-10T00:27:38;5.23;;;0.77;;
17965;SDS011;9108;53.204;10.424;2022-07-10T00:30:06;4.57;;;0.60;;
17965;SDS011;9108;53.204;10.424;2022-07-10T00:32:33;3.67;;;0.47;;
17965;SDS011;9108;53.204;10.424;2022-07-10T00:35:01;7.20;;;0.90;;
17965;SDS011;9108;53.204;10.424;2022-07-10T00:37:29;3.07;;;0.40;;
17965;SDS011;9108;53.204;10.424;2022-07-10T00:39:56;6.93;;;0.83;;
17965;SDS011;9108;53.204;10.424;2022-07-10T00:42:25;2.50;;;0.70;;
17965;SDS011;9108;53.204;10.424;2022-07-10T00:44:52;5.27;;;0.80;;
17965;SDS011;9108;53.204;10.424;2022-07-10T00:47:19;3.23;;;0.50;;
17965;SDS011;9108;53.204;10.424;2022-07-10T00:49:46;2.87;;;0.80;;
17965;SDS011;9108;53.204;10.424;2022-07-10T00:52:14;2.07;;;0.43;;
17965;SDS011;9108;53.204;10.424;2022-07-10T00:54:43;3.83;;;0.60;;
17965;SDS011;9108;53.204;10.424;2022-07-10T00:57:12;5.03;;;0.77;;
17965;SDS011;9108;53.204;10.424;2022-07-10T00:59:40;8.00;;;0.60;;
17965;SDS011;9108;53.204;10.424;2022-07-10T01:02:07;4.07;;;0.57;;
17965;SDS011;9108;53.204;10.424;2022-07-10T01:04:35;3.93;;;0.50;;
17965;SDS011;9108;53.204;10.424;2022-07-10T01:07:03;3.37;;;0.50;;
17965;SDS011;9108;53.204;10.424;2022-07-10T01:09:30;5.07;;;0.63;;
17965;SDS011;9108;53.204;10.424;2022-07-10T01:12:00;7.73;;;1.20;;
17965;SDS011;9108;53.204;10.424;2022-07-10T01:14:28;1.53;;;0.50;;
17965;SDS011;9108;53.204;10.424;2022-07-10T01:16:55;3.20;;;0.40;;
17965;SDS011;9108;53.204;10.424;2022-07-10T01:19:22;4.20;;;0.60;;
17965;SDS011;9108;53.204;10.424;2022-07-10T01:21:51;4.40;;;0.60;;
17965;SDS011;9108;53.204;10.424;2022-07-10T01:24:18;3.30;;;0.70;;
17965;SDS011;9108;53.204;10.424;2022-07-10T01:26:45;4.27;;;0.57;;
17965;SDS011;9108;53.204;10.424;2022-07-10T01:29:12;1.90;;;0.50;;
17965;SDS011;9108;53.204;10.424;2022-07-10T01:31:40;4.97;;;0.90;;
17965;SDS011;9108;53.204;10.424;2022-07-10T01:34:08;0.80;;;0.40;;
17965;SDS011;9108;53.204;10.424;2022-07-10T01:36:35;4.60;;;0.80;;
17965;SDS011;9108;53.204;10.424;2022-07-10T01:39:04;5.97;;;0.60;;
17965;SDS011;9108;53.204;10.424;2022-07-10T01:41:31;7.70;;;0.67;;
17965;SDS011;9108;53.204;10.424;2022-07-10T01:43:58;6.83;;;1.00;;
17965;SDS011;9108;53.204;10.424;2022-07-10T01:46:25;4.20;;;0.50;;
17965;SDS011;9108;53.204;10.424;2022-07-10T01:48:52;3.27;;;0.50;;
17965;SDS011;9108;53.204;10.424;2022-07-10T01:51:20;3.63;;;0.60;;
17965;SDS011;9108;53.204;10.424;2022-07-10T01:53:47;1.33;;;0.47;;
17965;SDS011;9108;53.204;10.424;2022-07-10T01:56:15;4.60;;;0.70;;
17965;SDS011;9108;53.204;10.424;2022-07-10T01:58:43;4.67;;;0.50;;
17965;SDS011;9108;53.204;10.424;2022-07-10T02:01:10;6.03;;;0.57;;
17965;SDS011;9108;53.204;10.424;2022-07-10T02:03:37;3.57;;;0.60;;
17965;SDS011;9108;53.204;10.424;2022-07-10T02:06:22;2.37;;;0.80;;
17965;SDS011;9108;53.204;10.424;2022-07-10T02:08:49;7.77;;;0.80;;
17965;SDS011;9108;53.204;10.424;2022-07-10T02:11:18;3.37;;;0.67;;
17965;SDS011;9108;53.204;10.424;2022-07-10T02:13:45;6.67;;;0.83;;
17965;SDS011;9108;53.204;10.424;2022-07-10T02:16:12;3.13;;;0.50;;
17965;SDS011;9108;53.204;10.424;2022-07-10T02:18:39;7.00;;;0.87;;
17965;SDS011;9108;53.204;10.424;2022-07-10T02:21:07;4.23;;;0.93;;
17965;SDS011;9108;53.204;10.424;2022-07-10T02:23:34;4.30;;;0.60;;
17965;SDS011;9108;53.204;10.424;2022-07-10T02:26:01;5.30;;;0.60;;
17965;SDS011;9108;53.204;10.424;2022-07-10T02:28:29;3.33;;;0.63;;
17965;SDS011;9108;53.204;10.424;2022-07-10T02:30:57;5.50;;;0.80;;
17965;SDS011;9108;53.204;10.424;2022-07-10T02:33:24;5.40;;;0.70;;
17965;SDS011;9108;53.204;10.424;2022-07-10T02:35:51;2.37;;;0.70;;
17965;SDS011;9108;53.204;10.424;2022-07-10T02:38:18;6.13;;;0.90;;
17965;SDS011;9108;53.204;10.424;2022-07-10T02:40:46;7.27;;;0.80;;
17965;SDS011;9108;53.204;10.424;2022-07-10T02:43:13;5.23;;;1.00;;
17965;SDS011;9108;53.204;10.424;2022-07-10T02:45:41;4.23;;;0.77;;
17965;SDS011;9108;53.204;10.424;2022-07-10T02:48:08;4.07;;;0.67;;
17965;SDS011;9108;53.204;10.424;2022-07-10T02:50:35;7.07;;;0.70;;
17965;SDS011;9108;53.204;10.424;2022-07-10T02:53:02;4.43;;;0.90;;
17965;SDS011;9108;53.204;10.424;2022-07-10T02:55:29;4.87;;;0.83;;
17965;SDS011;9108;53.204;10.424;2022-07-10T02:57:57;2.60;;;0.80;;
17965;SDS011;9108;53.204;10.424;2022-07-10T03:00:25;4.53;;;1.23;;
17965;SDS011;9108;53.204;10.424;2022-07-10T03:02:54;4.07;;;0.70;;
17965;SDS011;9108;53.204;10.424;2022-07-10T03:05:21;5.37;;;0.90;;
17965;SDS011;9108;53.204;10.424;2022-07-10T03:07:48;5.50;;;0.60;;
17965;SDS011;9108;53.204;10.424;2022-07-10T03:10:15;2.60;;;0.73;;
17965;SDS011;9108;53.204;10.424;2022-07-10T03:12:42;6.20;;;0.87;;
17965;SDS011;9108;53.204;10.424;2022-07-10T03:15:09;6.57;;;0.90;;
17965;SDS011;9108;53.204;10.424;2022-07-10T03:17:36;7.90;;;0.70;;
17965;SDS011;9108;53.204;10.424;2022-07-10T03:20:06;5.70;;;0.63;;
17965;SDS011;9108;53.204;10.424;2022-07-10T03:22:34;4.40;;;0.93;;
17965;SDS011;9108;53.204;10.424;2022-07-10T03:25:01;4.57;;;0.90;;
17965;SDS011;9108;53.204;10.424;2022-07-10T03:27:28;9.67;;;1.20;;
17965;SDS011;9108;53.204;10.424;2022-07-10T03:29:55;5.00;;;0.80;;
17965;SDS011;9108;53.204;10.424;2022-07-10T03:32:22;4.57;;;0.73;;
17965;SDS011;9108;53.204;10.424;2022-07-10T03:34:49;2.87;;;0.63;;
17965;SDS011;9108;53.204;10.424;2022-07-10T03:37:18;5.40;;;0.90;;
17965;SDS011;9108;53.204;10.424;2022-07-10T03:39:45;7.43;;;1.00;;
17965;SDS011;9108;53.204;10.424;2022-07-10T03:42:12;5.13;;;0.80;;
17965;SDS011;9108;53.204;10.424;2022-07-10T03:44:39;5.90;;;0.87;;
17965;SDS011;9108;53.204;10.424;2022-07-10T03:47:06;5.53;;;0.77;;
17965;SDS011;9108;53.204;10.424;2022-07-10T03:49:33;5.77;;;0.63;;
17965;SDS011;9108;53.204;10.424;2022-07-10T03:52:01;10.33;;;1.00;;
17965;SDS011;9108;53.204;10.424;2022-07-10T03:54:29;7.77;;;0.70;;
17965;SDS011;9108;53.204;10.424;2022-07-10T03:56:56;5.83;;;1.00;;
17965;SDS011;9108;53.204;10.424;2022-07-10T03:59:41;8.60;;;1.03;;
17965;SDS011;9108;53.204;10.424;2022-07-10T04:02:08;4.53;;;1.10;;
17965;SDS011;9108;53.204;10.424;2022-07-10T04:04:35;9.77;;;1.03;;
17965;SDS011;9108;53.204;10.424;2022-07-10T04:07:03;5.50;;;0.90;;
17965;SDS011;9108;53.204;10.424;2022-07-10T04:09:32;7.40;;;0.90;;
17965;SDS011;9108;53.204;10.424;2022-07-10T04:11:59;6.63;;;0.90;;
17965;SDS011;9108;53.204;10.424;2022-07-10T04:14:26;6.83;;;0.90;;
17965;SDS011;9108;53.204;10.424;2022-07-10T04:16:53;10.37;;;1.27;;
17965;SDS011;9108;53.204;10.424;2022-07-10T04:19:20;3.47;;;1.00;;
17965;SDS011;9108;53.204;10.424;2022-07-10T04:21:47;4.80;;;0.93;;
17965;SDS011;9108;53.204;10.424;2022-07-10T04:24:15;6.00;;;1.10;;
17965;SDS011;9108;53.204;10.424;2022-07-10T04:26:43;7.30;;;1.03;;
17965;SDS011;9108;53.204;10.424;2022-07-10T04:29:10;6.37;;;0.90;;
17965;SDS011;9108;53.204;10.424;2022-07-10T04:31:37;11.50;;;1.23;;
17965;SDS011;9108;53.204;10.424;2022-07-10T04:34:04;6.53;;;1.10;;
17965;SDS011;9108;53.204;10.424;2022-07-10T04:36:32;7.30;;;1.00;;
17965;SDS011;9108;53.204;10.424;2022-07-10T04:38:59;4.63;;;0.80;;
17965;SDS011;9108;53.204;10.424;2022-07-10T04:41:26;12.40;;;1.43;;
17965;SDS011;9108;53.204;10.424;2022-07-10T04:43:55;5.90;;;0.90;;
17965;SDS011;9108;53.204;10.424;2022-07-10T04:46:22;15.23;;;1.60;;
17965;SDS011;9108;53.204;10.424;2022-07-10T04:48:49;5.83;;;0.93;;
17965;SDS011;9108;53.204;10.424;2022-07-10T04:51:16;6.70;;;1.00;;
17965;SDS011;9108;53.204;10.424;2022-07-10T04:53:43;6.30;;;1.13;;
17965;SDS011;9108;53.204;10.424;2022-07-10T04:56:10;5.50;;;1.30;;
17965;SDS011;9108;53.204;10.424;2022-07-10T04:58:37;10.20;;;1.00;;
17965;SDS011;9108;53.204;10.424;2022-07-10T05:01:06;11.93;;;1.27;;
17965;SDS011;9108;53.204;10.424;2022-07-10T05:03:33;6.63;;;1.10;;
17965;SDS011;9108;53.204;10.424;2022-07-10T05:06:00;10.73;;;1.30;;
17965;SDS011;9108;53.204;10.424;2022-07-10T05:08:27;9.57;;;1.27;;
17965;SDS011;9108;53.204;10.424;2022-07-10T05:10:55;6.97;;;1.00;;
17965;SDS011;9108;53.204;10.424;2022-07-10T05:13:22;6.37;;;1.47;;
17965;SDS011;9108;53.204;10.424;2022-07-10T05:15:49;8.00;;;1.30;;
17965;SDS011;9108;53.204;10.424;2022-07-10T05:18:17;6.70;;;1.23;;
17965;SDS011;9108;53.204;10.424;2022-07-10T05:20:44;11.07;;;1.43;;
17965;SDS011;9108;53.204;10.424;2022-07-10T05:23:13;8.23;;;1.30;;
17965;SDS011;9108;53.204;10.424;2022-07-10T05:25:40;10.13;;;1.40;;
17965;SDS011;9108;53.204;10.424;2022-07-10T05:28:08;12.80;;;1.47;;
17965;SDS011;9108;53.204;10.424;2022-07-10T05:30:35;6.57;;;1.10;;
17965;SDS011;9108;53.204;10.424;2022-07-10T05:33:02;6.50;;;1.43;;
17965;SDS011;9108;53.204;10.424;2022-07-10T05:35:30;10.17;;;1.70;;
17965;SDS011;9108;53.204;10.424;2022-07-10T05:37:58;14.73;;;1.63;;
17965;SDS011;9108;53.204;10.424;2022-07-10T05:40:25;12.13;;;1.83;;
17965;SDS011;9108;53.204;10.424;2022-07-10T05:42:52;12.60;;;1.80;;
17965;SDS011;9108;53.204;10.424;2022-07-10T05:45:19;10.03;;;1.47;;
17965;SDS011;9108;53.204;10.424;2022-07-10T05:47:46;11.87;;;1.67;;
17965;SDS011;9108;53.204;10.424;2022-07-10T05:50:13;10.03;;;1.60;;
17965;SDS011;9108;53.204;10.424;2022-07-10T05:52:42;8.43;;;2.10;;
17965;SDS011;9108;53.204;10.424;2022-07-10T05:55:09;12.37;;;1.70;;
17965;SDS011;9108;53.204;10.424;2022-07-10T05:57:36;17.53;;;1.90;;
17965;SDS011;9108;53.204;10.424;2022-07-10T06:00:04;10.07;;;1.57;;
17965;SDS011;9108;53.204;10.424;2022-07-10T06:02:31;9.10;;;1.50;;
17965;SDS011;9108;53.204;10.424;2022-07-10T06:04:58;8.07;;;1.87;;
17965;SDS011;9108;53.204;10.424;2022-07-10T06:07:26;5.17;;;1.37;;
17965;SDS011;9108;53.204;10.424;2022-07-10T06:09:54;10.27;;;1.40;;
17965;SDS011;9108;53.204;10.424;2022-07-10T06:12:22;10.93;;;1.50;;
17965;SDS011;9108;53.204;10.424;2022-07-10T06:14:49;7.33;;;1.43;;
17965;SDS011;9108;53.204;10.424;2022-07-10T06:17:16;12.13;;;1.73;;
17965;SDS011;9108;53.204;10.424;2022-07-10T06:19:43;9.43;;;1.50;;
17965;SDS011;9108;53.204;10.424;2022-07-10T06:22:10;11.43;;;1.87;;
17965;SDS011;9108;53.204;10.424;2022-07-10T06:24:56;12.63;;;1.20;;
17965;SDS011;9108;53.204;10.424;2022-07-10T06:27:23;8.30;;;1.40;;
17965;SDS011;9108;53.204;10.424;2022-07-10T06:29:50;9.03;;;1.43;;
17965;SDS011;9108;53.204;10.424;2022-07-10T06:32:17;10.23;;;1.50;;
17965;SDS011;9108;53.204;10.424;2022-07-10T06:34:45;8.67;;;1.40;;
17965;SDS011;9108;53.204;10.424;2022-07-10T06:37:12;7.63;;;1.67;;
17965;SDS011;9108;53.204;10.424;2022-07-10T06:39:39;9.87;;;1.40;;
17965;SDS011;9108;53.204;10.424;2022-07-10T06:42:07;9.90;;;1.63;;
17965;SDS011;9108;53.204;10.424;2022-07-10T06:44:34;8.87;;;1.43;;
17965;SDS011;9108;53.204;10.424;2022-07-10T06:47:02;9.67;;;1.70;;
17965;SDS011;9108;53.204;10.424;2022-07-10T06:49:46;8.83;;;1.43;;
17965;SDS011;9108;53.204;10.424;2022-07-10T06:52:14;10.27;;;1.90;;
17965;SDS011;9108;53.204;10.424;2022-07-10T06:54:41;11.73;;;1.47;;
17965;SDS011;9108;53.204;10.424;2022-07-10T06:57:10;11.10;;;1.50;;
17965;SDS011;9108;53.204;10.424;2022-07-10T06:59:38;17.47;;;1.87;;
17965;SDS011;9108;53.204;10.424;2022-07-10T07:02:05;10.83;;;1.73;;
17965;SDS011;9108;53.204;10.424;2022-07-10T07:04:32;10.07;;;1.80;;
17965;SDS011;9108;53.204;10.424;2022-07-10T07:06:59;12.73;;;1.50;;
17965;SDS011;9108;53.204;10.424;2022-07-10T07:09:28;10.10;;;1.60;;
17965;SDS011;9108;53.204;10.424;2022-07-10T07:11:55;9.60;;;1.33;;
17965;SDS011;9108;53.204;10.424;2022-07-10T07:14:24;11.10;;;1.80;;
17965;SDS011;9108;53.204;10.424;2022-07-10T07:16:51;12.63;;;1.83;;
17965;SDS011;9108;53.204;10.424;2022-07-10T07:19:28;10.40;;;1.77;;
17965;SDS011;9108;53.204;10.424;2022-07-10T07:22:18;10.87;;;1.93;;
17965;SDS011;9108;53.204;10.424;2022-07-10T07:25:04;13.70;;;1.50;;
17965;SDS011;9108;53.204;10.424;2022-07-10T07:27:32;9.57;;;1.30;;
17965;SDS011;9108;53.204;10.424;2022-07-10T07:30:04;11.27;;;1.70;;
17965;SDS011;9108;53.204;10.424;2022-07-10T07:32:31;13.50;;;1.60;;
17965;SDS011;9108;53.204;10.424;2022-07-10T07:34:59;10.93;;;1.57;;
17965;SDS011;9108;53.204;10.424;2022-07-10T07:37:36;8.03;;;1.37;;
17965;SDS011;9108;53.204;10.424;2022-07-10T07:40:03;9.30;;;1.17;;
17965;SDS011;9108;53.204;10.424;2022-07-10T07:42:30;12.03;;;1.60;;
17965;SDS011;9108;53.204;10.424;2022-07-10T07:44:58;8.60;;;1.30;;
17965;SDS011;9108;53.204;10.424;2022-07-10T07:47:26;5.83;;;1.20;;
17965;SDS011;9108;53.204;10.424;2022-07-10T07:49:53;12.23;;;1.50;;
17965;SDS011;9108;53.204;10.424;2022-07-10T07:52:20;10.13;;;1.80;;
17965;SDS011;9108;53.204;10.424;2022-07-10T07:54:48;9.33;;;1.50;;
17965;SDS011;9108;53.204;10.424;2022-07-10T07:57:15;12.27;;;1.70;;
17965;SDS011;9108;53.204;10.424;2022-07-10T07:59:43;8.80;;;1.50;;
17965;SDS011;9108;53.204;10.424;2022-07-10T08:02:10;4.87;;;1.13;;
17965;SDS011;9108;53.204;10.424;2022-07-10T08:04:39;8.40;;;1.70;;
17965;SDS011;9108;53.204;10.424;2022-07-10T08:07:06;11.03;;;1.33;;
17965;SDS011;9108;53.204;10.424;2022-07-10T08:09:33;11.67;;;1.60;;
17965;SDS011;9108;53.204;10.424;2022-07-10T08:12:01;6.67;;;1.17;;
17965;SDS011;9108;53.204;10.424;2022-07-10T08:14:28;8.80;;;1.23;;
17965;SDS011;9108;53.204;10.424;2022-07-10T08:16:55;10.13;;;1.50;;
17965;SDS011;9108;53.204;10.424;2022-07-10T08:19:22;10.93;;;1.20;;
17965;SDS011;9108;53.204;10.424;2022-07-10T08:21:51;5.53;;;1.10;;
17965;SDS011;9108;53.204;10.424;2022-07-10T08:24:18;8.33;;;1.13;;
17965;SDS011;9108;53.204;10.424;2022-07-10T08:26:45;10.20;;;1.40;;
17965;SDS011;9108;53.204;10.424;2022-07-10T08:29:12;8.37;;;1.40;;
17965;SDS011;9108;53.204;10.424;2022-07-10T08:31:40;6.97;;;1.57;;
17965;SDS011;9108;53.204;10.424;2022-07-10T08:34:07;10.20;;;1.37;;
17965;SDS011;9108;53.204;10.424;2022-07-10T08:36:34;12.80;;;1.53;;
17965;SDS011;9108;53.204;10.424;2022-07-10T08:39:02;6.70;;;1.50;;
17965;SDS011;9108;53.204;10.424;2022-07-10T08:41:30;10.60;;;1.37;;
17965;SDS011;9108;53.204;10.424;2022-07-10T08:43:58;7.00;;;1.20;;
17965;SDS011;9108;53.204;10.424;2022-07-10T08:46:26;6.93;;;1.20;;
17965;SDS011;9108;53.204;10.424;2022-07-10T08:48:54;11.97;;;1.37;;
17965;SDS011;9108;53.204;10.424;2022-07-10T08:51:30;11.13;;;1.40;;
17965;SDS011;9108;53.204;10.424;2022-07-10T08:54:03;6.87;;;1.20;;
17965;SDS011;9108;53.204;10.424;2022-07-10T08:56:32;8.00;;;1.40;;
17965;SDS011;9108;53.204;10.424;2022-07-10T08:58:59;4.93;;;1.00;;
17965;SDS011;9108;53.204;10.424;2022-07-10T09:01:27;8.23;;;1.00;;
17965;SDS011;9108;53.204;10.424;2022-07-10T09:03:54;7.53;;;1.10;;
17965;SDS011;9108;53.204;10.424;2022-07-10T09:06:21;8.00;;;1.27;;
17965;SDS011;9108;53.204;10.424;2022-07-10T09:08:58;10.63;;;1.47;;
17965;SDS011;9108;53.204;10.424;2022-07-10T09:11:27;5.60;;;1.10;;
17965;SDS011;9108;53.204;10.424;2022-07-10T09:13:56;10.77;;;1.13;;
17965;SDS011;9108;53.204;10.424;2022-07-10T09:16:24;4.93;;;1.10;;
17965;SDS011;9108;53.204;10.424;2022-07-10T09:18:51;6.43;;;0.90;;
17965;SDS011;9108;53.204;10.424;2022-07-10T09:21:18;4.37;;;0.80;;
17965;SDS011;9108;53.204;10.424;2022-07-10T09:23:45;8.23;;;1.20;;
17965;SDS011;9108;53.204;10.424;2022-07-10T09:26:13;6.40;;;1.30;;
17965;SDS011;9108;53.204;10.424;2022-07-10T09:28:41;8.60;;;1.10;;
17965;SDS011;9108;53.204;10.424;2022-07-10T09:31:08;6.33;;;1.00;;
17965;SDS011;9108;53.204;10.424;2022-07-10T09:33:36;5.97;;;1.10;;
17965;SDS011;9108;53.204;10.424;2022-07-10T09:36:03;7.27;;;0.93;;
17965;SDS011;9108;53.204;10.424;2022-07-10T09:38:47;8.63;;;1.40;;
17965;SDS011;9108;53.204;10.424;2022-07-10T09:41:15;9.23;;;1.23;;
17965;SDS011;9108;53.204;10.424;2022-07-10T09:43:45;7.07;;;1.20;;
17965;SDS011;9108;53.204;10.424;2022-07-10T09:46:12;4.97;;;1.03;;
17965;SDS011;9108;53.204;10.424;2022-07-10T09:48:39;4.20;;;1.00;;
17965;SDS011;9108;53.204;10.424;2022-07-10T09:51:09;8.47;;;1.07;;
17965;SDS011;9108;53.204;10.424;2022-07-10T09:53:37;5.73;;;1.20;;
17965;SDS011;9108;53.204;10.424;2022-07-10T09:56:06;9.30;;;1.43;;
17965;SDS011;9108;53.204;10.424;2022-07-10T09:58:34;7.43;;;1.10;;
17965;SDS011;9108;53.204;10.424;2022-07-10T10:01:03;5.57;;;1.10;;
17965;SDS011;9108;53.204;10.424;2022-07-10T10:03:38;6.57;;;1.20;;
17965;SDS011;9108;53.204;10.424;2022-07-10T10:06:09;7.63;;;1.10;;
17965;SDS011;9108;53.204;10.424;2022-07-10T10:08:40;6.77;;;1.10;;
17965;SDS011;9108;53.204;10.424;2022-07-10T10:11:13;7.27;;;0.97;;
17965;SDS011;9108;53.204;10.424;2022-07-10T10:13:41;8.13;;;1.27;;
17965;SDS011;9108;53.204;10.424;2022-07-10T10:16:10;7.33;;;1.07;;
17965;SDS011;9108;53.204;10.424;2022-07-10T10:18:37;5.67;;;1.10;;
17965;SDS011;9108;53.204;10.424;2022-07-10T10:21:25;8.57;;;1.20;;
17965;SDS011;9108;53.204;10.424;2022-07-10T10:23:51;5.87;;;0.97;;
17965;SDS011;9108;53.204;10.424;2022-07-10T10:26:19;7.43;;;1.13;;
17965;SDS011;9108;53.204;10.424;2022-07-10T10:28:47;8.30;;;0.83;;
17965;SDS011;9108;53.204;10.424;2022-07-10T10:31:15;6.43;;;1.00;;
17965;SDS011;9108;53.204;10.424;2022-07-10T10:33:44;4.27;;;0.97;;
17965;SDS011;9108;53.204;10.424;2022-07-10T10:36:12;5.63;;;0.90;;
17965;SDS011;9108;53.204;10.424;2022-07-10T10:41:25;9.07;;;1.03;;
17965;SDS011;9108;53.204;10.424;2022-07-10T10:46:52;8.97;;;1.20;;
17965;SDS011;9108;53.204;10.424;2022-07-10T10:49:22;9.90;;;1.03;;
17965;SDS011;9108;53.204;10.424;2022-07-10T10:51:56;3.13;;;0.97;;
17965;SDS011;9108;53.204;10.424;2022-07-10T10:54:24;3.57;;;1.07;;
17965;SDS011;9108;53.204;10.424;2022-07-10T10:59:45;4.60;;;1.17;;
17965;SDS011;9108;53.204;10.424;2022-07-10T11:02:24;4.93;;;0.90;;
17965;SDS011;9108;53.204;10.424;2022-07-10T11:04:53;5.23;;;1.17;;
17965;SDS011;9108;53.204;10.424;2022-07-10T11:07:52;7.27;;;1.13;;
17965;SDS011;9108;53.204;10.424;2022-07-10T11:10:26;12.90;;;1.50;;
17965;SDS011;9108;53.204;10.424;2022-07-10T11:12:59;4.70;;;0.73;;
17965;SDS011;9108;53.204;10.424;2022-07-10T11:15:27;4.40;;;0.80;;
17965;SDS011;9108;53.204;10.424;2022-07-10T11:17:56;5.90;;;0.83;;
17965;SDS011;9108;53.204;10.424;2022-07-10T11:20:24;5.63;;;0.80;;
17965;SDS011;9108;53.204;10.424;2022-07-10T11:22:52;4.43;;;0.70;;
17965;SDS011;9108;53.204;10.424;2022-07-10T11:25:38;5.53;;;0.90;;
17965;SDS011;9108;53.204;10.424;2022-07-10T11:28:09;5.83;;;0.80;;
17965;SDS011;9108;53.204;10.424;2022-07-10T11:30:44;4.53;;;0.90;;
17965;SDS011;9108;53.204;10.424;2022-07-10T11:33:12;5.93;;;0.70;;
17965;SDS011;9108;53.204;10.424;2022-07-10T11:35:39;5.60;;;1.10;;
17965;SDS011;9108;53.204;10.424;2022-07-10T11:38:07;6.43;;;1.10;;
17965;SDS011;9108;53.204;10.424;2022-07-10T11:40:37;7.03;;;1.00;;
17965;SDS011;9108;53.204;10.424;2022-07-10T11:43:04;6.03;;;0.80;;
17965;SDS011;9108;53.204;10.424;2022-07-10T11:45:35;5.27;;;1.10;;
17965;SDS011;9108;53.204;10.424;2022-07-10T11:48:04;4.13;;;0.80;;
17965;SDS011;9108;53.204;10.424;2022-07-10T11:50:37;4.20;;;1.00;;
17965;SDS011;9108;53.204;10.424;2022-07-10T11:53:04;5.53;;;1.00;;
17965;SDS011;9108;53.204;10.424;2022-07-10T11:55:32;9.03;;;1.20;;
17965;SDS011;9108;53.204;10.424;2022-07-10T11:58:11;5.93;;;0.70;;
17965;SDS011;9108;53.204;10.424;2022-07-10T12:00:39;9.93;;;1.00;;
17965;SDS011;9108;53.204;10.424;2022-07-10T12:03:16;10.67;;;0.93;;
17965;SDS011;9108;53.204;10.424;2022-07-10T12:05:46;4.60;;;0.70;;
17965;SDS011;9108;53.204;10.424;2022-07-10T12:08:13;7.50;;;1.07;;
17965;SDS011;9108;53.204;10.424;2022-07-10T12:10:41;11.33;;;1.20;;
17965;SDS011;9108;53.204;10.424;2022-07-10T12:13:09;7.50;;;0.97;;
17965;SDS011;9108;53.204;10.424;2022-07-10T12:15:37;6.00;;;1.43;;
17965;SDS011;9108;53.204;10.424;2022-07-10T12:18:05;5.23;;;0.90;;
17965;SDS011;9108;53.204;10.424;2022-07-10T12:20:32;4.93;;;0.87;;
17965;SDS011;9108;53.204;10.424;2022-07-10T12:23:01;5.57;;;0.93;;
17965;SDS011;9108;53.204;10.424;2022-07-10T12:25:29;5.90;;;0.80;;
17965;SDS011;9108;53.204;10.424;2022-07-10T12:27:57;3.10;;;0.60;;
17965;SDS011;9108;53.204;10.424;2022-07-10T12:30:35;5.60;;;0.80;;
17965;SDS011;9108;53.204;10.424;2022-07-10T12:33:09;4.80;;;0.87;;
17965;SDS011;9108;53.204;10.424;2022-07-10T12:35:47;5.40;;;0.87;;
17965;SDS011;9108;53.204;10.424;2022-07-10T12:38:18;6.80;;;1.07;;
17965;SDS011;9108;53.204;10.424;2022-07-10T12:40:45;5.43;;;1.10;;
17965;SDS011;9108;53.204;10.424;2022-07-10T12:43:23;5.57;;;1.00;;
17965;SDS011;9108;53.204;10.424;2022-07-10T12:48:32;7.10;;;1.00;;
17965;SDS011;9108;53.204;10.424;2022-07-10T12:53:45;3.47;;;0.73;;
17965;SDS011;9108;53.204;10.424;2022-07-10T12:56:25;8.07;;;0.80;;
17965;SDS011;9108;53.204;10.424;2022-07-10T12:58:52;2.97;;;0.67;;
17965;SDS011;9108;53.204;10.424;2022-07-10T13:01:19;6.97;;;0.87;;
17965;SDS011;9108;53.204;10.424;2022-07-10T13:03:47;6.83;;;0.87;;
17965;SDS011;9108;53.204;10.424;2022-07-10T13:06:25;6.83;;;0.87;;
17965;SDS011;9108;53.204;10.424;2022-07-10T13:08:53;5.33;;;1.00;;
17965;SDS011;9108;53.204;10.424;2022-07-10T13:11:21;6.30;;;1.10;;
17965;SDS011;9108;53.204;10.424;2022-07-10T13:13:48;5.40;;;0.70;;
17965;SDS011;9108;53.204;10.424;2022-07-10T13:16:15;9.03;;;1.00;;
17965;SDS011;9108;53.204;10.424;2022-07-10T13:18:42;7.37;;;1.33;;
17965;SDS011;9108;53.204;10.424;2022-07-10T13:21:10;4.53;;;0.80;;
17965;SDS011;9108;53.204;10.424;2022-07-10T13:23:37;11.57;;;1.27;;
17965;SDS011;9108;53.204;10.424;2022-07-10T13:26:06;5.93;;;0.80;;
17965;SDS011;9108;53.204;10.424;2022-07-10T13:28:33;5.80;;;0.90;;
17965;SDS011;9108;53.204;10.424;2022-07-10T13:31:00;5.13;;;0.97;;
17965;SDS011;9108;53.204;10.424;2022-07-10T13:33:27;4.97;;;0.93;;
17965;SDS011;9108;53.204;10.424;2022-07-10T13:35:54;5.53;;;1.10;;
17965;SDS011;9108;53.204;10.424;2022-07-10T13:38:22;7.67;;;1.23;;
17965;SDS011;9108;53.204;10.424;2022-07-10T13:40:50;8.97;;;1.10;;
17965;SDS011;9108;53.204;10.424;2022-07-10T13:43:18;4.73;;;0.70;;
17965;SDS011;9108;53.204;10.424;2022-07-10T13:45:46;5.07;;;0.80;;
17965;SDS011;9108;53.204;10.424;2022-07-10T13:48:13;4.33;;;0.97;;
17965;SDS011;9108;53.204;10.424;2022-07-10T13:50:41;8.20;;;1.00;;
17965;SDS011;9108;53.204;10.424;2022-07-10T13:53:09;3.30;;;0.70;;
17965;SDS011;9108;53.204;10.424;2022-07-10T13:55:36;5.17;;;0.70;;
17965;SDS011;9108;53.204;10.424;2022-07-10T13:58:03;4.03;;;0.70;;
17965;SDS011;9108;53.204;10.424;2022-07-10T14:00:32;7.07;;;0.90;;
17965;SDS011;9108;53.204;10.424;2022-07-10T14:02:59;5.53;;;0.70;;
17965;SDS011;9108;53.204;10.424;2022-07-10T14:05:26;7.13;;;0.93;;
17965;SDS011;9108;53.204;10.424;2022-07-10T14:07:53;6.70;;;0.70;;
17965;SDS011;9108;53.204;10.424;2022-07-10T14:10:21;3.53;;;0.80;;
17965;SDS011;9108;53.204;10.424;2022-07-10T14:12:48;4.13;;;0.80;;
17965;SDS011;9108;53.204;10.424;2022-07-10T14:15:15;4.00;;;0.60;;
17965;SDS011;9108;53.204;10.424;2022-07-10T14:17:44;6.77;;;0.83;;
17965;SDS011;9108;53.204;10.424;2022-07-10T14:20:11;7.07;;;0.80;;
17965;SDS011;9108;53.204;10.424;2022-07-10T14:22:38;6.10;;;0.90;;
17965;SDS011;9108;53.204;10.424;2022-07-10T14:25:06;2.67;;;0.80;;
17965;SDS011;9108;53.204;10.424;2022-07-10T14:27:34;5.80;;;1.07;;
17965;SDS011;9108;53.204;10.424;2022-07-10T14:30:01;5.57;;;1.00;;
17965;SDS011;9108;53.204;10.424;2022-07-10T14:32:28;4.37;;;1.00;;
17965;SDS011;9108;53.204;10.424;2022-07-10T14:34:57;6.33;;;0.80;;
17965;SDS011;9108;53.204;10.424;2022-07-10T14:37:24;6.67;;;0.90;;
17965;SDS011;9108;53.204;10.424;2022-07-10T14:39:51;6.57;;;1.00;;
17965;SDS011;9108;53.204;10.424;2022-07-10T14:42:18;6.13;;;0.93;;
17965;SDS011;9108;53.204;10.424;2022-07-10T14:44:45;6.23;;;1.07;;
17965;SDS011;9108;53.204;10.424;2022-07-10T14:47:12;7.07;;;0.90;;
17965;SDS011;9108;53.204;10.424;2022-07-10T14:49:40;6.03;;;0.87;;
17965;SDS011;9108;53.204;10.424;2022-07-10T14:52:08;3.87;;;0.60;;
17965;SDS011;9108;53.204;10.424;2022-07-10T14:54:35;5.53;;;0.70;;
17965;SDS011;9108;53.204;10.424;2022-07-10T14:57:02;4.90;;;0.90;;
17965;SDS011;9108;53.204;10.424;2022-07-10T14:59:30;4.47;;;0.70;;
17965;SDS011;9108;53.204;10.424;2022-07-10T15:01:57;6.97;;;0.80;;
17965;SDS011;9108;53.204;10.424;2022-07-10T15:04:24;4.87;;;1.00;;
17965;SDS011;9108;53.204;10.424;2022-07-10T15:06:51;5.67;;;0.80;;